SBRJ/SDU METAR and TAF weather

Enter ICAO airport designator
Station Type Date Time Source
SBRJ METAR 2020/11/28 20:00 UTC NOAA

SBRJ 282000Z 20013KT 9999 FEW030 28/21 Q1015


Station Type Date Time Source
SBRJ Decoded METAR 2020/11/28 20:00 UTC NOAA

Rio De Janeiro Aeroporto , Brazil (SBRJ) 22-54S 043-10W
Nov 28, 2020 - 03:00 PM EST / 2020.11.28 2000 UTC
Wind: from the SSW (200 degrees) at 15 MPH (13 KT):0
Visibility: greater than 7 mile(s):0
Sky conditions: mostly clear
Temperature: 82 F (28 C)
Dew Point: 69 F (21 C)
Relative Humidity: 65%
Pressure (altimeter): 29.97 in. Hg (1015 hPa)
ob: SBRJ 282000Z 20013KT 9999 FEW030 28/21 Q1015
cycle: 20

Station Type Date Time Source
SBRJ TAF 2020/11/28 18:27 UTC NOAA

TAF SBRJ 281500Z 2818/2906 16010KT 9999 FEW025 TX29/2818Z TN23/2902Z
BECMG 2900/2902 11005KT
RMK PHD

Example: see airport list